sensor_id;sensor_type;location;lat;lon;timestamp;temperature;humidity
23137;DHT22;11737;50.558;7.258;2023-04-03T00:01:42;8.40;99.90
23137;DHT22;11737;50.558;7.258;2023-04-03T00:04:09;8.50;99.90
23137;DHT22;11737;50.558;7.258;2023-04-03T00:06:37;8.40;99.90
23137;DHT22;11737;50.558;7.258;2023-04-03T00:09:04;8.40;99.90
23137;DHT22;11737;50.558;7.258;2023-04-03T00:11:32;8.40;99.90
23137;DHT22;11737;50.558;7.258;2023-04-03T00:13:59;8.40;99.90
23137;DHT22;11737;50.558;7.258;2023-04-03T00:16:27;8.30;99.90
23137;DHT22;11737;50.558;7.258;2023-04-03T00:18:55;8.30;99.90
23137;DHT22;11737;50.558;7.258;2023-04-03T00:21:22;8.30;99.90
23137;DHT22;11737;50.558;7.258;2023-04-03T00:23:50;8.30;99.90
23137;DHT22;11737;50.558;7.258;2023-04-03T00:26:17;8.30;99.90
23137;DHT22;11737;50.558;7.258;2023-04-03T00:28:45;8.30;99.90
23137;DHT22;11737;50.558;7.258;2023-04-03T00:31:14;8.30;99.90
23137;DHT22;11737;50.558;7.258;2023-04-03T00:33:42;8.20;99.90
23137;DHT22;11737;50.558;7.258;2023-04-03T00:36:11;8.20;99.90
23137;DHT22;11737;50.558;7.258;2023-04-03T00:38:39;8.20;99.90
23137;DHT22;11737;50.558;7.258;2023-04-03T00:41:07;8.30;99.90
23137;DHT22;11737;50.558;7.258;2023-04-03T00:43:35;8.30;99.90
23137;DHT22;11737;50.558;7.258;2023-04-03T00:46:02;8.30;99.90
23137;DHT22;11737;50.558;7.258;2023-04-03T00:48:39;8.20;99.90
23137;DHT22;11737;50.558;7.258;2023-04-03T00:51:09;8.20;99.90
23137;DHT22;11737;50.558;7.258;2023-04-03T00:53:58;8.00;99.90
23137;DHT22;11737;50.558;7.258;2023-04-03T00:56:27;8.00;99.90
23137;DHT22;11737;50.558;7.258;2023-04-03T01:01:49;7.70;99.90
23137;DHT22;11737;50.558;7.258;2023-04-03T01:04:31;7.60;99.90
23137;DHT22;11737;50.558;7.258;2023-04-03T01:07:01;7.60;99.90
23137;DHT22;11737;50.558;7.258;2023-04-03T01:09:29;7.60;99.90
23137;DHT22;11737;50.558;7.258;2023-04-03T01:14:45;7.90;99.90
23137;DHT22;11737;50.558;7.258;2023-04-03T01:17:39;7.90;99.90
23137;DHT22;11737;50.558;7.258;2023-04-03T01:22:56;7.80;99.90
23137;DHT22;11737;50.558;7.258;2023-04-03T01:25:23;7.80;99.90
23137;DHT22;11737;50.558;7.258;2023-04-03T01:27:51;7.70;99.90
23137;DHT22;11737;50.558;7.258;2023-04-03T01:30:20;7.60;99.90
23137;DHT22;11737;50.558;7.258;2023-04-03T01:32:48;7.60;99.90
23137;DHT22;11737;50.558;7.258;2023-04-03T01:35:16;7.60;99.90
23137;DHT22;11737;50.558;7.258;2023-04-03T01:37:44;7.50;99.90
23137;DHT22;11737;50.558;7.258;2023-04-03T01:40:11;7.50;99.90
23137;DHT22;11737;50.558;7.258;2023-04-03T01:42:39;7.40;99.90
23137;DHT22;11737;50.558;7.258;2023-04-03T01:45:06;7.50;99.90
23137;DHT22;11737;50.558;7.258;2023-04-03T01:47:34;7.60;99.90
23137;DHT22;11737;50.558;7.258;2023-04-03T01:50:02;7.60;99.90
23137;DHT22;11737;50.558;7.258;2023-04-03T01:52:29;7.50;99.90
23137;DHT22;11737;50.558;7.258;2023-04-03T01:54:57;7.40;99.90
23137;DHT22;11737;50.558;7.258;2023-04-03T01:57:25;7.30;99.90
23137;DHT22;11737;50.558;7.258;2023-04-03T01:59:53;7.40;99.90
23137;DHT22;11737;50.558;7.258;2023-04-03T02:02:20;7.30;99.90
23137;DHT22;11737;50.558;7.258;2023-04-03T02:04:48;7.30;99.90
23137;DHT22;11737;50.558;7.258;2023-04-03T02:07:15;7.30;99.90
23137;DHT22;11737;50.558;7.258;2023-04-03T02:09:43;7.30;99.90
23137;DHT22;11737;50.558;7.258;2023-04-03T02:12:10;7.30;99.90
23137;DHT22;11737;50.558;7.258;2023-04-03T02:14:38;7.20;99.90
23137;DHT22;11737;50.558;7.258;2023-04-03T02:17:05;7.20;99.90
23137;DHT22;11737;50.558;7.258;2023-04-03T02:19:35;7.30;99.90
23137;DHT22;11737;50.558;7.258;2023-04-03T02:22:04;7.30;99.90
23137;DHT22;11737;50.558;7.258;2023-04-03T02:24:32;7.40;99.90
23137;DHT22;11737;50.558;7.258;2023-04-03T02:27:00;7.40;99.90
23137;DHT22;11737;50.558;7.258;2023-04-03T02:29:27;7.50;99.90
23137;DHT22;11737;50.558;7.258;2023-04-03T02:31:55;7.50;99.90
23137;DHT22;11737;50.558;7.258;2023-04-03T02:34:22;7.50;99.90
23137;DHT22;11737;50.558;7.258;2023-04-03T02:36:49;7.30;99.90
23137;DHT22;11737;50.558;7.258;2023-04-03T02:39:17;7.30;99.90
23137;DHT22;11737;50.558;7.258;2023-04-03T02:41:44;7.20;99.90
23137;DHT22;11737;50.558;7.258;2023-04-03T02:44:12;7.20;99.90
23137;DHT22;11737;50.558;7.258;2023-04-03T02:46:40;7.10;99.90
23137;DHT22;11737;50.558;7.258;2023-04-03T02:49:08;7.20;99.90
23137;DHT22;11737;50.558;7.258;2023-04-03T02:51:35;7.10;99.90
23137;DHT22;11737;50.558;7.258;2023-04-03T02:54:03;7.10;99.90
23137;DHT22;11737;50.558;7.258;2023-04-03T02:56:30;7.10;99.90
23137;DHT22;11737;50.558;7.258;2023-04-03T02:58:58;7.10;99.90
23137;DHT22;11737;50.558;7.258;2023-04-03T03:01:25;7.20;99.90
23137;DHT22;11737;50.558;7.258;2023-04-03T03:03:54;7.20;99.90
23137;DHT22;11737;50.558;7.258;2023-04-03T03:06:22;7.30;99.90
23137;DHT22;11737;50.558;7.258;2023-04-03T03:08:49;7.50;99.90
23137;DHT22;11737;50.558;7.258;2023-04-03T03:11:17;7.60;99.90
23137;DHT22;11737;50.558;7.258;2023-04-03T03:13:45;7.80;99.90
23137;DHT22;11737;50.558;7.258;2023-04-03T03:16:12;7.80;99.90
23137;DHT22;11737;50.558;7.258;2023-04-03T03:18:40;7.80;99.90
23137;DHT22;11737;50.558;7.258;2023-04-03T03:21:09;7.70;99.90
23137;DHT22;11737;50.558;7.258;2023-04-03T03:23:37;7.60;99.90
23137;DHT22;11737;50.558;7.258;2023-04-03T03:26:08;7.60;99.90
23137;DHT22;11737;50.558;7.258;2023-04-03T03:28:36;7.50;99.90
23137;DHT22;11737;50.558;7.258;2023-04-03T03:31:04;7.40;99.90
23137;DHT22;11737;50.558;7.258;2023-04-03T03:33:32;7.30;99.90
23137;DHT22;11737;50.558;7.258;2023-04-03T03:36:00;7.30;99.90
23137;DHT22;11737;50.558;7.258;2023-04-03T03:38:28;7.20;99.90
23137;DHT22;11737;50.558;7.258;2023-04-03T03:40:55;7.10;99.90
23137;DHT22;11737;50.558;7.258;2023-04-03T03:43:23;7.10;99.90
23137;DHT22;11737;50.558;7.258;2023-04-03T03:45:54;7.10;99.90
23137;DHT22;11737;50.558;7.258;2023-04-03T03:48:22;7.10;99.90
23137;DHT22;11737;50.558;7.258;2023-04-03T03:50:50;7.30;99.90
23137;DHT22;11737;50.558;7.258;2023-04-03T03:53:18;7.40;99.90
23137;DHT22;11737;50.558;7.258;2023-04-03T03:55:45;7.30;99.90
23137;DHT22;11737;50.558;7.258;2023-04-03T03:58:13;7.20;99.90
23137;DHT22;11737;50.558;7.258;2023-04-03T04:00:40;7.00;99.90
23137;DHT22;11737;50.558;7.258;2023-04-03T04:03:08;6.90;99.90
23137;DHT22;11737;50.558;7.258;2023-04-03T04:05:35;6.80;99.90
23137;DHT22;11737;50.558;7.258;2023-04-03T04:08:03;6.60;99.90
23137;DHT22;11737;50.558;7.258;2023-04-03T04:10:30;6.60;99.90
23137;DHT22;11737;50.558;7.258;2023-04-03T04:12:58;6.60;99.90
23137;DHT22;11737;50.558;7.258;2023-04-03T04:15:26;6.70;99.90
23137;DHT22;11737;50.558;7.258;2023-04-03T04:17:53;6.60;99.90
23137;DHT22;11737;50.558;7.258;2023-04-03T04:20:21;6.60;99.90
23137;DHT22;11737;50.558;7.258;2023-04-03T04:22:48;6.50;99.90
23137;DHT22;11737;50.558;7.258;2023-04-03T04:25:16;6.40;99.90
23137;DHT22;11737;50.558;7.258;2023-04-03T04:27:44;6.40;99.90
23137;DHT22;11737;50.558;7.258;2023-04-03T04:30:12;6.30;99.90
23137;DHT22;11737;50.558;7.258;2023-04-03T04:32:40;6.30;99.90
23137;DHT22;11737;50.558;7.258;2023-04-03T04:35:07;6.20;99.90
23137;DHT22;11737;50.558;7.258;2023-04-03T04:37:36;6.20;99.90
23137;DHT22;11737;50.558;7.258;2023-04-03T04:40:03;6.10;99.90
23137;DHT22;11737;50.558;7.258;2023-04-03T04:42:31;6.10;99.90
23137;DHT22;11737;50.558;7.258;2023-04-03T04:44:59;6.00;99.90
23137;DHT22;11737;50.558;7.258;2023-04-03T04:47:28;5.90;99.90
23137;DHT22;11737;50.558;7.258;2023-04-03T04:49:56;5.80;99.90
23137;DHT22;11737;50.558;7.258;2023-04-03T04:52:24;5.90;99.90
23137;DHT22;11737;50.558;7.258;2023-04-03T04:54:51;5.90;99.90
23137;DHT22;11737;50.558;7.258;2023-04-03T04:57:19;5.90;99.90
23137;DHT22;11737;50.558;7.258;2023-04-03T04:59:46;5.80;99.90
23137;DHT22;11737;50.558;7.258;2023-04-03T05:02:14;5.80;99.90
23137;DHT22;11737;50.558;7.258;2023-04-03T05:04:41;5.90;99.90
23137;DHT22;11737;50.558;7.258;2023-04-03T05:07:09;5.70;99.90
23137;DHT22;11737;50.558;7.258;2023-04-03T05:09:36;5.60;99.90
23137;DHT22;11737;50.558;7.258;2023-04-03T05:12:04;5.50;99.90
23137;DHT22;11737;50.558;7.258;2023-04-03T05:14:32;5.50;99.90
23137;DHT22;11737;50.558;7.258;2023-04-03T05:16:59;5.50;99.90
23137;DHT22;11737;50.558;7.258;2023-04-03T05:19:27;5.50;99.90
23137;DHT22;11737;50.558;7.258;2023-04-03T05:21:54;5.50;99.90
23137;DHT22;11737;50.558;7.258;2023-04-03T05:24:22;5.30;99.90
23137;DHT22;11737;50.558;7.258;2023-04-03T05:26:49;5.30;99.90
23137;DHT22;11737;50.558;7.258;2023-04-03T05:29:17;5.30;99.90
23137;DHT22;11737;50.558;7.258;2023-04-03T05:31:44;5.20;99.90
23137;DHT22;11737;50.558;7.258;2023-04-03T05:34:12;5.30;99.90
23137;DHT22;11737;50.558;7.258;2023-04-03T05:36:40;5.20;99.90
23137;DHT22;11737;50.558;7.258;2023-04-03T05:39:08;5.00;99.90
23137;DHT22;11737;50.558;7.258;2023-04-03T05:41:35;5.00;99.90
23137;DHT22;11737;50.558;7.258;2023-04-03T05:44:03;5.00;99.90
23137;DHT22;11737;50.558;7.258;2023-04-03T05:46:30;5.00;99.90
23137;DHT22;11737;50.558;7.258;2023-04-03T05:48:58;5.10;99.90
23137;DHT22;11737;50.558;7.258;2023-04-03T05:51:33;5.10;99.90
23137;DHT22;11737;50.558;7.258;2023-04-03T05:56:45;5.30;99.90
23137;DHT22;11737;50.558;7.258;2023-04-03T05:59:12;5.40;99.90
23137;DHT22;11737;50.558;7.258;2023-04-03T06:01:40;5.40;99.90
23137;DHT22;11737;50.558;7.258;2023-04-03T06:04:07;5.50;99.90
23137;DHT22;11737;50.558;7.258;2023-04-03T06:09:16;5.80;99.90
23137;DHT22;11737;50.558;7.258;2023-04-03T06:11:43;5.90;99.90
23137;DHT22;11737;50.558;7.258;2023-04-03T06:14:11;6.10;99.90
23137;DHT22;11737;50.558;7.258;2023-04-03T06:16:39;6.20;99.90
23137;DHT22;11737;50.558;7.258;2023-04-03T06:19:08;6.40;99.90
23137;DHT22;11737;50.558;7.258;2023-04-03T06:21:36;6.30;99.90
23137;DHT22;11737;50.558;7.258;2023-04-03T06:24:04;6.40;99.90
23137;DHT22;11737;50.558;7.258;2023-04-03T06:26:33;6.40;99.90
23137;DHT22;11737;50.558;7.258;2023-04-03T06:29:00;6.50;99.90
23137;DHT22;11737;50.558;7.258;2023-04-03T06:31:29;6.60;99.90
23137;DHT22;11737;50.558;7.258;2023-04-03T06:33:56;6.80;99.90
23137;DHT22;11737;50.558;7.258;2023-04-03T06:36:24;6.90;99.90
23137;DHT22;11737;50.558;7.258;2023-04-03T06:38:52;6.90;99.90
23137;DHT22;11737;50.558;7.258;2023-04-03T06:41:20;6.90;99.90
23137;DHT22;11737;50.558;7.258;2023-04-03T06:43:47;7.00;99.90
23137;DHT22;11737;50.558;7.258;2023-04-03T06:46:17;7.20;99.90
23137;DHT22;11737;50.558;7.258;2023-04-03T06:48:45;7.30;99.90
23137;DHT22;11737;50.558;7.258;2023-04-03T06:51:20;7.40;99.90
23137;DHT22;11737;50.558;7.258;2023-04-03T06:53:50;7.50;99.90
23137;DHT22;11737;50.558;7.258;2023-04-03T06:56:18;7.50;99.90
23137;DHT22;11737;50.558;7.258;2023-04-03T06:58:46;7.60;99.90
23137;DHT22;11737;50.558;7.258;2023-04-03T07:01:15;7.80;99.90
23137;DHT22;11737;50.558;7.258;2023-04-03T07:03:44;7.90;99.90
23137;DHT22;11737;50.558;7.258;2023-04-03T07:09:02;7.80;99.90
23137;DHT22;11737;50.558;7.258;2023-04-03T07:11:29;7.90;99.90
23137;DHT22;11737;50.558;7.258;2023-04-03T07:13:57;8.00;99.90
23137;DHT22;11737;50.558;7.258;2023-04-03T07:16:25;8.20;99.90
23137;DHT22;11737;50.558;7.258;2023-04-03T07:18:52;8.30;99.90
23137;DHT22;11737;50.558;7.258;2023-04-03T07:21:20;8.30;99.90
23137;DHT22;11737;50.558;7.258;2023-04-03T07:23:47;8.40;99.90
23137;DHT22;11737;50.558;7.258;2023-04-03T07:26:15;8.40;99.90
23137;DHT22;11737;50.558;7.258;2023-04-03T07:28:42;8.40;99.90
23137;DHT22;11737;50.558;7.258;2023-04-03T07:31:12;8.50;99.90
23137;DHT22;11737;50.558;7.258;2023-04-03T07:33:44;8.50;99.90
23137;DHT22;11737;50.558;7.258;2023-04-03T07:36:18;8.60;99.90
23137;DHT22;11737;50.558;7.258;2023-04-03T07:38:42;8.60;99.90
23137;DHT22;11737;50.558;7.258;2023-04-03T07:41:18;8.80;99.90
23137;DHT22;11737;50.558;7.258;2023-04-03T07:43:47;9.00;99.90
23137;DHT22;11737;50.558;7.258;2023-04-03T07:46:16;9.10;99.90
23137;DHT22;11737;50.558;7.258;2023-04-03T07:48:44;9.10;99.90
23137;DHT22;11737;50.558;7.258;2023-04-03T07:51:11;9.10;99.90
23137;DHT22;11737;50.558;7.258;2023-04-03T07:53:39;9.20;99.90
23137;DHT22;11737;50.558;7.258;2023-04-03T07:56:08;9.40;99.90
23137;DHT22;11737;50.558;7.258;2023-04-03T07:58:36;9.50;99.90
23137;DHT22;11737;50.558;7.258;2023-04-03T08:01:03;9.60;99.90
23137;DHT22;11737;50.558;7.258;2023-04-03T08:03:31;9.60;99.90
23137;DHT22;11737;50.558;7.258;2023-04-03T08:06:03;9.60;99.90
23137;DHT22;11737;50.558;7.258;2023-04-03T08:08:32;9.70;99.90
23137;DHT22;11737;50.558;7.258;2023-04-03T08:11:00;9.70;99.90
23137;DHT22;11737;50.558;7.258;2023-04-03T08:13:29;9.70;99.90
23137;DHT22;11737;50.558;7.258;2023-04-03T08:15:57;9.90;99.90
23137;DHT22;11737;50.558;7.258;2023-04-03T08:18:25;10.00;99.90
23137;DHT22;11737;50.558;7.258;2023-04-03T08:20:53;10.10;99.90
23137;DHT22;11737;50.558;7.258;2023-04-03T08:23:20;10.20;99.90
23137;DHT22;11737;50.558;7.258;2023-04-03T08:25:48;10.20;99.90
23137;DHT22;11737;50.558;7.258;2023-04-03T08:28:15;10.30;99.90
23137;DHT22;11737;50.558;7.258;2023-04-03T08:30:43;10.30;99.90
23137;DHT22;11737;50.558;7.258;2023-04-03T08:33:30;10.40;99.90
23137;DHT22;11737;50.558;7.258;2023-04-03T08:35:57;10.40;99.90
23137;DHT22;11737;50.558;7.258;2023-04-03T08:38:25;10.60;99.90
23137;DHT22;11737;50.558;7.258;2023-04-03T08:41:20;10.60;99.90
23137;DHT22;11737;50.558;7.258;2023-04-03T08:43:59;10.90;99.90
23137;DHT22;11737;50.558;7.258;2023-04-03T08:47:02;11.00;99.90
23137;DHT22;11737;50.558;7.258;2023-04-03T08:49:32;11.10;99.90
23137;DHT22;11737;50.558;7.258;2023-04-03T08:52:02;11.20;99.90
23137;DHT22;11737;50.558;7.258;2023-04-03T08:54:35;11.10;99.90
23137;DHT22;11737;50.558;7.258;2023-04-03T08:57:05;11.00;99.90
23137;DHT22;11737;50.558;7.258;2023-04-03T08:59:37;11.10;99.90
23137;DHT22;11737;50.558;7.258;2023-04-03T09:04:54;11.40;99.90
23137;DHT22;11737;50.558;7.258;2023-04-03T09:07:36;11.60;99.90
23137;DHT22;11737;50.558;7.258;2023-04-03T09:10:04;11.70;99.90
23137;DHT22;11737;50.558;7.258;2023-04-03T09:12:41;11.80;99.90
23137;DHT22;11737;50.558;7.258;2023-04-03T09:23:03;11.40;99.90
23137;DHT22;11737;50.558;7.258;2023-04-03T09:25:34;11.60;99.90
23137;DHT22;11737;50.558;7.258;2023-04-03T09:28:03;11.80;99.90
23137;DHT22;11737;50.558;7.258;2023-04-03T09:30:33;11.90;99.90
23137;DHT22;11737;50.558;7.258;2023-04-03T09:33:01;12.10;99.90
23137;DHT22;11737;50.558;7.258;2023-04-03T09:35:31;12.30;99.90
23137;DHT22;11737;50.558;7.258;2023-04-03T09:38:22;12.60;99.90
23137;DHT22;11737;50.558;7.258;2023-04-03T09:40:32;12.80;99.90
23137;DHT22;11737;50.558;7.258;2023-04-03T09:43:18;13.00;99.90
23137;DHT22;11737;50.558;7.258;2023-04-03T09:45:34;13.20;99.90
23137;DHT22;11737;50.558;7.258;2023-04-03T09:50:55;13.70;99.90
23137;DHT22;11737;50.558;7.258;2023-04-03T09:53:31;13.90;99.50
23137;DHT22;11737;50.558;7.258;2023-04-03T09:55:55;13.80;99.90
23137;DHT22;11737;50.558;7.258;2023-04-03T10:01:31;13.70;99.90
23137;DHT22;11737;50.558;7.258;2023-04-03T10:04:17;13.70;99.90
23137;DHT22;11737;50.558;7.258;2023-04-03T10:06:53;13.70;99.90
23137;DHT22;11737;50.558;7.258;2023-04-03T10:09:26;13.70;99.90
23137;DHT22;11737;50.558;7.258;2023-04-03T10:14:28;13.60;99.90
23137;DHT22;11737;50.558;7.258;2023-04-03T10:20:29;13.40;99.90
23137;DHT22;11737;50.558;7.258;2023-04-03T10:28:46;13.30;98.60
23137;DHT22;11737;50.558;7.258;2023-04-03T10:34:28;13.30;99.90
23137;DHT22;11737;50.558;7.258;2023-04-03T10:45:26;13.20;99.90
23137;DHT22;11737;50.558;7.258;2023-04-03T10:53:42;13.40;97.50
23137;DHT22;11737;50.558;7.258;2023-04-03T10:56:19;13.40;96.60
23137;DHT22;11737;50.558;7.258;2023-04-03T10:59:07;13.40;99.90
23137;DHT22;11737;50.558;7.258;2023-04-03T11:01:33;13.50;99.90
23137;DHT22;11737;50.558;7.258;2023-04-03T11:04:03;13.50;99.90
23137;DHT22;11737;50.558;7.258;2023-04-03T11:06:37;13.70;99.90
23137;DHT22;11737;50.558;7.258;2023-04-03T11:09:15;13.80;99.90
23137;DHT22;11737;50.558;7.258;2023-04-03T11:11:38;13.80;99.90
23137;DHT22;11737;50.558;7.258;2023-04-03T11:22:35;14.10;99.90
23137;DHT22;11737;50.558;7.258;2023-04-03T11:27:43;14.10;99.40
23137;DHT22;11737;50.558;7.258;2023-04-03T11:36:18;14.40;99.90
23137;DHT22;11737;50.558;7.258;2023-04-03T11:38:44;14.40;99.90
23137;DHT22;11737;50.558;7.258;2023-04-03T11:41:14;14.40;99.90
23137;DHT22;11737;50.558;7.258;2023-04-03T11:44:05;14.50;99.90
23137;DHT22;11737;50.558;7.258;2023-04-03T11:46:55;14.30;95.40
23137;DHT22;11737;50.558;7.258;2023-04-03T12:11:13;14.60;99.90
23137;DHT22;11737;50.558;7.258;2023-04-03T12:16:28;14.50;89.10
23137;DHT22;11737;50.558;7.258;2023-04-03T12:19:01;14.40;92.80
23137;DHT22;11737;50.558;7.258;2023-04-03T12:24:51;14.40;97.70
23137;DHT22;11737;50.558;7.258;2023-04-03T12:32:26;14.50;94.90
23137;DHT22;11737;50.558;7.258;2023-04-03T12:34:59;14.50;94.50
23137;DHT22;11737;50.558;7.258;2023-04-03T12:46:14;14.70;92.10
23137;DHT22;11737;50.558;7.258;2023-04-03T12:54:39;14.70;93.30
23137;DHT22;11737;50.558;7.258;2023-04-03T12:59:44;14.70;92.20
23137;DHT22;11737;50.558;7.258;2023-04-03T13:02:31;14.80;87.00
23137;DHT22;11737;50.558;7.258;2023-04-03T13:05:05;14.80;91.70
23137;DHT22;11737;50.558;7.258;2023-04-03T13:07:35;14.70;91.80
23137;DHT22;11737;50.558;7.258;2023-04-03T13:12:56;14.80;92.10
23137;DHT22;11737;50.558;7.258;2023-04-03T13:18:39;14.80;94.00
23137;DHT22;11737;50.558;7.258;2023-04-03T13:21:30;15.00;94.40
23137;DHT22;11737;50.558;7.258;2023-04-03T13:24:01;15.00;92.50
23137;DHT22;11737;50.558;7.258;2023-04-03T13:26:31;14.90;95.80
23137;DHT22;11737;50.558;7.258;2023-04-03T13:29:06;14.80;93.60
23137;DHT22;11737;50.558;7.258;2023-04-03T13:31:38;14.80;91.80
23137;DHT22;11737;50.558;7.258;2023-04-03T13:34:18;14.80;92.30
23137;DHT22;11737;50.558;7.258;2023-04-03T13:39:26;14.70;94.20
23137;DHT22;11737;50.558;7.258;2023-04-03T13:42:14;14.70;92.10
23137;DHT22;11737;50.558;7.258;2023-04-03T13:44:36;14.90;95.90
23137;DHT22;11737;50.558;7.258;2023-04-03T13:49:44;15.10;87.40
23137;DHT22;11737;50.558;7.258;2023-04-03T13:55:00;15.00;92.80
23137;DHT22;11737;50.558;7.258;2023-04-03T13:57:28;15.10;94.70
23137;DHT22;11737;50.558;7.258;2023-04-03T13:59:56;15.20;82.70
23137;DHT22;11737;50.558;7.258;2023-04-03T14:02:32;15.10;95.90
23137;DHT22;11737;50.558;7.258;2023-04-03T14:05:01;15.20;92.90
23137;DHT22;11737;50.558;7.258;2023-04-03T14:07:30;15.20;89.70
23137;DHT22;11737;50.558;7.258;2023-04-03T14:09:59;15.20;87.20
23137;DHT22;11737;50.558;7.258;2023-04-03T14:12:37;15.20;82.40
23137;DHT22;11737;50.558;7.258;2023-04-03T14:15:26;15.20;84.70
23137;DHT22;11737;50.558;7.258;2023-04-03T14:17:54;15.10;92.60
23137;DHT22;11737;50.558;7.258;2023-04-03T14:20:24;15.10;92.30
23137;DHT22;11737;50.558;7.258;2023-04-03T14:22:53;15.20;88.30
23137;DHT22;11737;50.558;7.258;2023-04-03T14:25:21;15.10;92.10
23137;DHT22;11737;50.558;7.258;2023-04-03T14:27:53;15.10;92.40
23137;DHT22;11737;50.558;7.258;2023-04-03T14:30:27;15.10;92.90
23137;DHT22;11737;50.558;7.258;2023-04-03T14:32:55;15.10;90.80
23137;DHT22;11737;50.558;7.258;2023-04-03T14:35:23;15.10;86.80
23137;DHT22;11737;50.558;7.258;2023-04-03T14:37:52;15.20;95.40
23137;DHT22;11737;50.558;7.258;2023-04-03T14:40:23;15.40;88.80
23137;DHT22;11737;50.558;7.258;2023-04-03T14:42:51;15.80;93.20
23137;DHT22;11737;50.558;7.258;2023-04-03T14:45:22;16.30;89.50
23137;DHT22;11737;50.558;7.258;2023-04-03T14:47:52;16.70;90.30
23137;DHT22;11737;50.558;7.258;2023-04-03T14:50:25;17.20;93.30
23137;DHT22;11737;50.558;7.258;2023-04-03T14:52:55;17.50;90.10
23137;DHT22;11737;50.558;7.258;2023-04-03T14:55:24;18.00;84.00
23137;DHT22;11737;50.558;7.258;2023-04-03T14:57:53;18.60;85.00
23137;DHT22;11737;50.558;7.258;2023-04-03T15:03:22;19.00;85.20
23137;DHT22;11737;50.558;7.258;2023-04-03T15:06:12;19.60;79.90
23137;DHT22;11737;50.558;7.258;2023-04-03T15:08:42;19.80;71.00
23137;DHT22;11737;50.558;7.258;2023-04-03T15:11:12;19.70;73.80
23137;DHT22;11737;50.558;7.258;2023-04-03T15:13:40;20.10;75.60
23137;DHT22;11737;50.558;7.258;2023-04-03T15:16:18;20.70;78.10
23137;DHT22;11737;50.558;7.258;2023-04-03T15:18:47;21.50;75.00
23137;DHT22;11737;50.558;7.258;2023-04-03T15:21:14;22.30;76.10
23137;DHT22;11737;50.558;7.258;2023-04-03T15:23:43;22.70;76.10
23137;DHT22;11737;50.558;7.258;2023-04-03T15:26:10;23.30;66.20
23137;DHT22;11737;50.558;7.258;2023-04-03T15:28:40;23.60;63.90
23137;DHT22;11737;50.558;7.258;2023-04-03T15:31:09;24.00;63.50
23137;DHT22;11737;50.558;7.258;2023-04-03T15:33:37;24.30;64.70
23137;DHT22;11737;50.558;7.258;2023-04-03T15:36:05;24.80;63.70
23137;DHT22;11737;50.558;7.258;2023-04-03T15:38:32;25.00;59.20
23137;DHT22;11737;50.558;7.258;2023-04-03T15:41:00;25.50;58.30
23137;DHT22;11737;50.558;7.258;2023-04-03T15:43:28;25.70;57.50
23137;DHT22;11737;50.558;7.258;2023-04-03T15:45:58;25.90;55.90
23137;DHT22;11737;50.558;7.258;2023-04-03T15:48:26;26.30;57.20
23137;DHT22;11737;50.558;7.258;2023-04-03T15:50:54;26.80;57.60
23137;DHT22;11737;50.558;7.258;2023-04-03T15:53:22;27.00;53.80
23137;DHT22;11737;50.558;7.258;2023-04-03T15:55:49;27.30;55.40
23137;DHT22;11737;50.558;7.258;2023-04-03T15:58:17;27.50;52.00
23137;DHT22;11737;50.558;7.258;2023-04-03T16:00:45;27.80;49.20
23137;DHT22;11737;50.558;7.258;2023-04-03T16:03:17;27.90;47.90
23137;DHT22;11737;50.558;7.258;2023-04-03T16:05:45;27.90;46.60
23137;DHT22;11737;50.558;7.258;2023-04-03T16:08:13;28.10;45.80
23137;DHT22;11737;50.558;7.258;2023-04-03T16:10:41;28.40;46.60
23137;DHT22;11737;50.558;7.258;2023-04-03T16:13:09;28.70;43.20
23137;DHT22;11737;50.558;7.258;2023-04-03T16:15:36;29.00;45.20
23137;DHT22;11737;50.558;7.258;2023-04-03T16:18:04;29.10;47.30
23137;DHT22;11737;50.558;7.258;2023-04-03T16:20:33;29.30;43.50
23137;DHT22;11737;50.558;7.258;2023-04-03T16:23:02;29.30;42.20
23137;DHT22;11737;50.558;7.258;2023-04-03T16:25:33;29.40;41.70
23137;DHT22;11737;50.558;7.258;2023-04-03T16:28:01;29.60;44.40
23137;DHT22;11737;50.558;7.258;2023-04-03T16:30:29;29.50;40.80
23137;DHT22;11737;50.558;7.258;2023-04-03T16:32:57;29.60;42.60
23137;DHT22;11737;50.558;7.258;2023-04-03T16:35:24;29.60;41.70
23137;DHT22;11737;50.558;7.258;2023-04-03T16:37:52;29.70;40.30
23137;DHT22;11737;50.558;7.258;2023-04-03T16:40:19;30.00;44.20
23137;DHT22;11737;50.558;7.258;2023-04-03T16:42:47;30.00;40.60
23137;DHT22;11737;50.558;7.258;2023-04-03T16:45:14;29.90;39.50
23137;DHT22;11737;50.558;7.258;2023-04-03T16:47:42;29.70;41.10
23137;DHT22;11737;50.558;7.258;2023-04-03T16:50:10;29.30;40.00
23137;DHT22;11737;50.558;7.258;2023-04-03T16:52:37;29.00;42.00
23137;DHT22;11737;50.558;7.258;2023-04-03T16:55:05;28.80;43.60
23137;DHT22;11737;50.558;7.258;2023-04-03T16:57:33;28.40;39.30
23137;DHT22;11737;50.558;7.258;2023-04-03T17:00:00;27.60;40.20
23137;DHT22;11737;50.558;7.258;2023-04-03T17:02:28;26.70;39.80
23137;DHT22;11737;50.558;7.258;2023-04-03T17:04:56;26.10;40.70
23137;DHT22;11737;50.558;7.258;2023-04-03T17:07:24;25.30;43.00
23137;DHT22;11737;50.558;7.258;2023-04-03T17:09:52;24.70;44.50
23137;DHT22;11737;50.558;7.258;2023-04-03T17:12:21;24.00;42.30
23137;DHT22;11737;50.558;7.258;2023-04-03T17:14:48;23.30;43.10
23137;DHT22;11737;50.558;7.258;2023-04-03T17:17:18;22.40;44.70
23137;DHT22;11737;50.558;7.258;2023-04-03T17:19:47;21.30;44.70
23137;DHT22;11737;50.558;7.258;2023-04-03T17:22:15;20.10;48.50
23137;DHT22;11737;50.558;7.258;2023-04-03T17:24:44;19.40;48.70
23137;DHT22;11737;50.558;7.258;2023-04-03T17:27:11;18.90;50.60
23137;DHT22;11737;50.558;7.258;2023-04-03T17:29:39;18.20;48.10
23137;DHT22;11737;50.558;7.258;2023-04-03T17:32:06;17.50;49.80
23137;DHT22;11737;50.558;7.258;2023-04-03T17:34:34;16.70;51.10
23137;DHT22;11737;50.558;7.258;2023-04-03T17:37:02;16.10;50.80
23137;DHT22;11737;50.558;7.258;2023-04-03T17:39:30;15.50;54.40
23137;DHT22;11737;50.558;7.258;2023-04-03T17:41:57;15.00;56.10
23137;DHT22;11737;50.558;7.258;2023-04-03T17:44:26;14.70;58.40
23137;DHT22;11737;50.558;7.258;2023-04-03T17:46:53;14.40;61.00
23137;DHT22;11737;50.558;7.258;2023-04-03T17:49:21;14.20;59.00
23137;DHT22;11737;50.558;7.258;2023-04-03T17:51:49;13.90;64.70
23137;DHT22;11737;50.558;7.258;2023-04-03T17:54:16;13.70;64.00
23137;DHT22;11737;50.558;7.258;2023-04-03T17:56:44;13.50;66.30
23137;DHT22;11737;50.558;7.258;2023-04-03T17:59:16;13.30;64.70
23137;DHT22;11737;50.558;7.258;2023-04-03T18:01:46;13.10;58.00
23137;DHT22;11737;50.558;7.258;2023-04-03T18:04:13;12.80;59.40
23137;DHT22;11737;50.558;7.258;2023-04-03T18:06:46;12.50;63.90
23137;DHT22;11737;50.558;7.258;2023-04-03T18:09:17;12.30;64.60
23137;DHT22;11737;50.558;7.258;2023-04-03T18:11:46;12.20;70.20
23137;DHT22;11737;50.558;7.258;2023-04-03T18:14:16;12.00;71.00
23137;DHT22;11737;50.558;7.258;2023-04-03T18:16:45;11.90;72.10
23137;DHT22;11737;50.558;7.258;2023-04-03T18:19:12;11.80;78.50